createdAt,value
2022-10-29T00:00:59.087Z,14.57
2022-10-29T00:03:26.382Z,12.18
2022-10-29T00:06:09.532Z,13.67
2022-10-29T00:08:38.589Z,15.02
2022-10-29T00:11:15.275Z,15.23
2022-10-29T00:13:43.235Z,13.27
2022-10-29T00:16:15.866Z,13.90
2022-10-29T00:18:43.602Z,15.02
2022-10-29T00:21:16.106Z,13.65
2022-10-29T00:23:43.355Z,13.70
2022-10-29T00:26:10.663Z,18.13
2022-10-29T00:28:38.119Z,20.90
2022-10-29T00:31:12.590Z,10.38
2022-10-29T00:33:39.636Z,12.48
2022-10-29T00:36:18.792Z,15.13
2022-10-29T00:38:45.890Z,11.68
2022-10-29T00:41:16.112Z,14.15
2022-10-29T00:43:48.394Z,9.45
2022-10-29T00:46:27.823Z,13.25
2022-10-29T00:48:56.679Z,13.85
2022-10-29T00:51:23.755Z,10.32
2022-10-29T00:53:57.778Z,17.73
2022-10-29T00:56:26.817Z,17.65
2022-10-29T00:58:53.756Z,19.10
2022-10-29T01:01:20.641Z,14.23
2022-10-29T01:03:48.211Z,17.92
2022-10-29T01:06:15.313Z,16.58
2022-10-29T01:08:41.978Z,16.77
2022-10-29T01:11:26.655Z,11.98
2022-10-29T01:14:11.971Z,14.63
2022-10-29T01:17:04.808Z,15.73
2022-10-29T01:19:49.675Z,13.07
2022-10-29T01:22:36.710Z,11.73
2022-10-29T01:25:12.640Z,15.37
2022-10-29T01:27:59.453Z,11.45
2022-10-29T01:30:28.551Z,13.50
2022-10-29T01:33:17.910Z,13.82
2022-10-29T01:36:08.009Z,14.30
2022-10-29T01:38:38.640Z,14.80
2022-10-29T01:41:46.007Z,12.32
2022-10-29T01:44:37.376Z,13.88
2022-10-29T01:47:05.749Z,11.10
2022-10-29T01:49:40.225Z,13.52
2022-10-29T01:52:10.316Z,8.73
2022-10-29T01:54:43.973Z,15.68
2022-10-29T01:57:25.796Z,16.58
2022-10-29T01:59:56.018Z,13.30
2022-10-29T02:02:31.066Z,12.18
2022-10-29T02:05:19.725Z,17.90
2022-10-29T02:07:50.760Z,10.20
2022-10-29T02:10:31.562Z,12.88
2022-10-29T02:12:58.945Z,12.80
2022-10-29T02:15:35.074Z,18.73
2022-10-29T02:18:04.582Z,17.00
2022-10-29T02:20:31.316Z,12.02
2022-10-29T02:22:58.466Z,17.65
2022-10-29T02:25:25.466Z,17.02
2022-10-29T02:27:52.263Z,17.35
2022-10-29T02:30:19.512Z,18.77
2022-10-29T02:32:46.222Z,18.52
2022-10-29T02:35:12.982Z,18.73
2022-10-29T02:37:39.652Z,21.23
2022-10-29T02:40:09.265Z,18.30
2022-10-29T02:42:36.073Z,16.73
2022-10-29T02:45:02.948Z,14.32
2022-10-29T02:47:29.678Z,14.05
2022-10-29T02:49:56.428Z,14.63
2022-10-29T02:52:23.197Z,19.35
2022-10-29T02:54:49.940Z,19.33
2022-10-29T02:57:16.766Z,19.80
2022-10-29T02:59:43.663Z,15.18
2022-10-29T03:02:10.420Z,14.35
2022-10-29T03:04:39.433Z,19.02
2022-10-29T03:07:06.150Z,17.00
2022-10-29T03:09:32.899Z,14.90
2022-10-29T03:11:59.554Z,15.20
2022-10-29T03:14:26.285Z,10.75
2022-10-29T03:16:52.940Z,15.32
2022-10-29T03:19:19.783Z,14.27
2022-10-29T03:21:46.471Z,11.75
2022-10-29T03:24:13.219Z,11.93
2022-10-29T03:26:39.914Z,12.70
2022-10-29T03:29:06.622Z,14.52
2022-10-29T03:31:33.385Z,15.65
2022-10-29T03:34:00.191Z,16.63
2022-10-29T03:36:27.119Z,14.70
2022-10-29T03:38:53.845Z,19.10
2022-10-29T03:41:20.653Z,15.05
2022-10-29T03:43:47.550Z,11.88
2022-10-29T03:46:14.310Z,13.68
2022-10-29T03:48:41.133Z,14.65
2022-10-29T03:51:07.973Z,17.10
2022-10-29T03:53:39.169Z,13.05
2022-10-29T03:56:06.932Z,14.30
2022-10-29T03:58:33.721Z,15.75
2022-10-29T04:01:08.497Z,15.07
2022-10-29T04:03:42.155Z,19.92
2022-10-29T04:06:14.543Z,19.17
2022-10-29T04:08:41.598Z,16.17
2022-10-29T04:11:11.392Z,15.75
2022-10-29T04:13:38.132Z,23.75
2022-10-29T04:16:05.024Z,13.13
2022-10-29T04:18:31.846Z,14.40
2022-10-29T04:29:23.806Z,15.25
2022-10-29T04:31:50.676Z,12.70
2022-10-29T04:34:17.444Z,14.27
2022-10-29T04:36:44.155Z,13.63
2022-10-29T04:39:10.977Z,13.38
2022-10-29T04:41:37.712Z,12.98
2022-10-29T04:44:04.483Z,14.45
2022-10-29T04:46:31.183Z,11.73
2022-10-29T04:48:57.949Z,18.85
2022-10-29T04:51:26.212Z,17.35
2022-10-29T04:56:19.957Z,13.60
2022-10-29T04:58:46.661Z,15.38
2022-10-29T05:01:13.662Z,15.38
2022-10-29T05:03:40.542Z,13.75
2022-10-29T05:06:10.133Z,13.80
2022-10-29T05:08:37.084Z,14.48
2022-10-29T05:11:05.352Z,17.63
2022-10-29T05:13:38.959Z,15.38
2022-10-29T05:16:06.138Z,17.63
2022-10-29T05:18:32.938Z,15.00
2022-10-29T05:20:59.646Z,14.25
2022-10-29T05:23:26.384Z,15.43
2022-10-29T05:25:55.478Z,11.23
2022-10-29T05:28:23.265Z,11.13
2022-10-29T05:30:52.415Z,16.33
2022-10-29T05:33:24.323Z,13.02
2022-10-29T05:35:51.671Z,16.33
2022-10-29T05:38:19.035Z,11.97
2022-10-29T05:40:45.875Z,18.17
2022-10-29T05:43:14.354Z,16.95
2022-10-29T05:45:41.707Z,17.77
2022-10-29T05:48:10.154Z,12.90
2022-10-29T05:50:36.975Z,9.18
2022-10-29T05:53:06.368Z,10.02
2022-10-29T05:55:34.813Z,9.18
2022-10-29T05:58:06.991Z,14.60
2022-10-29T06:00:37.529Z,11.70
2022-10-29T06:03:08.873Z,12.70
2022-10-29T06:05:35.620Z,9.75
2022-10-29T06:08:02.337Z,16.83
2022-10-29T06:10:29.748Z,13.15
2022-10-29T06:12:56.757Z,28.38
2022-10-29T06:15:23.459Z,13.85
2022-10-29T06:17:50.751Z,15.75
2022-10-29T06:20:20.484Z,17.02
2022-10-29T06:22:47.643Z,12.57
2022-10-29T06:25:17.366Z,10.60
2022-10-29T06:27:44.062Z,14.63
2022-10-29T06:30:11.416Z,14.55
2022-10-29T06:32:38.136Z,9.67
2022-10-29T06:35:05.149Z,11.50
2022-10-29T06:37:33.291Z,9.30
2022-10-29T06:40:00.103Z,11.27
2022-10-29T06:42:27.005Z,10.57
2022-10-29T06:44:53.704Z,11.88
2022-10-29T06:47:20.416Z,10.40
2022-10-29T06:49:47.369Z,14.85
2022-10-29T06:52:14.147Z,14.82
2022-10-29T06:54:41.125Z,13.48
2022-10-29T06:57:08.020Z,15.10
2022-10-29T06:59:34.958Z,22.70
2022-10-29T07:02:01.792Z,21.55
2022-10-29T07:04:28.526Z,20.70
2022-10-29T07:06:57.924Z,29.55
2022-10-29T07:09:24.672Z,25.27
2022-10-29T07:11:51.527Z,27.60
2022-10-29T07:14:18.217Z,30.42
2022-10-29T07:16:46.241Z,31.80
2022-10-29T07:19:13.882Z,26.75
2022-10-29T07:21:43.178Z,28.70
2022-10-29T07:24:12.928Z,23.90
2022-10-29T07:26:40.039Z,20.73
2022-10-29T07:29:06.695Z,26.05
2022-10-29T07:31:35.051Z,22.33
2022-10-29T07:34:02.002Z,21.38
2022-10-29T07:36:32.040Z,18.42
2022-10-29T07:38:58.904Z,18.08
2022-10-29T07:41:26.369Z,18.63
2022-10-29T07:43:53.219Z,15.30
2022-10-29T07:46:22.974Z,18.30
2022-10-29T07:48:49.750Z,12.57
2022-10-29T07:51:16.446Z,13.55
2022-10-29T07:53:43.266Z,18.13
2022-10-29T07:56:15.899Z,14.75
2022-10-29T07:58:42.961Z,16.10
2022-10-29T08:01:10.097Z,14.57
2022-10-29T08:03:37.108Z,19.33
2022-10-29T08:06:05.758Z,17.60
2022-10-29T08:08:34.787Z,11.20
2022-10-29T08:12:10.881Z,10.48
2022-10-29T08:14:38.947Z,13.85
2022-10-29T08:17:08.549Z,12.60
2022-10-29T08:19:35.295Z,14.60
2022-10-29T08:22:02.033Z,14.55
2022-10-29T08:24:28.754Z,14.18
2022-10-29T08:26:55.432Z,14.45
2022-10-29T08:29:22.156Z,9.63
2022-10-29T08:31:48.889Z,10.60
2022-10-29T08:34:15.711Z,13.23
2022-10-29T08:36:42.412Z,11.82
2022-10-29T08:39:09.215Z,17.58
2022-10-29T08:41:47.044Z,15.15
2022-10-29T08:44:25.781Z,10.18
2022-10-29T08:47:15.620Z,9.73
2022-10-29T08:49:48.593Z,13.35
2022-10-29T08:52:24.216Z,10.80
2022-10-29T08:55:20.980Z,18.92
2022-10-29T08:57:55.357Z,9.38
2022-10-29T09:00:34.847Z,14.95
2022-10-29T09:03:01.910Z,12.15
2022-10-29T09:05:53.473Z,16.80
2022-10-29T09:08:26.160Z,15.80
2022-10-29T09:11:01.309Z,16.15
2022-10-29T09:14:02.020Z,16.08
2022-10-29T09:16:56.539Z,9.90
2022-10-29T09:19:40.412Z,13.77
2022-10-29T09:22:16.442Z,9.75
2022-10-29T09:25:12.018Z,13.07
2022-10-29T09:28:03.751Z,15.80
2022-10-29T09:30:31.557Z,16.80
2022-10-29T09:33:07.158Z,12.70
2022-10-29T09:35:39.794Z,16.02
2022-10-29T09:38:34.426Z,14.10
2022-10-29T09:41:02.807Z,15.38
2022-10-29T09:46:18.667Z,14.18
2022-10-29T09:48:54.207Z,14.95
2022-10-29T09:51:42.351Z,9.95
2022-10-29T09:54:10.003Z,12.25
2022-10-29T09:56:42.100Z,14.57
2022-10-29T09:59:32.181Z,11.07
2022-10-29T10:01:59.867Z,14.85
2022-10-29T10:04:45.225Z,12.65
2022-10-29T10:07:17.398Z,15.65
2022-10-29T10:09:56.125Z,13.43
2022-10-29T10:12:28.653Z,15.73
2022-10-29T10:15:17.415Z,13.48
2022-10-29T10:18:07.119Z,12.80
2022-10-29T10:20:35.779Z,14.65
2022-10-29T10:23:19.235Z,11.90
2022-10-29T10:25:46.376Z,14.32
2022-10-29T10:28:23.922Z,15.47
2022-10-29T10:31:10.304Z,13.45
2022-10-29T10:33:48.151Z,14.95
2022-10-29T10:39:02.970Z,16.75
2022-10-29T10:41:34.201Z,18.25
2022-10-29T10:44:04.019Z,11.68
2022-10-29T10:46:39.714Z,13.45
2022-10-29T10:49:15.530Z,17.92
2022-10-29T10:51:49.438Z,17.92
2022-10-29T10:54:41.797Z,18.90
2022-10-29T10:57:11.466Z,16.30
2022-10-29T11:00:00.377Z,17.88
2022-10-29T11:02:50.644Z,16.08
2022-10-29T11:05:29.102Z,15.32
2022-10-29T11:08:20.590Z,14.38
2022-10-29T11:11:27.469Z,15.60
2022-10-29T11:13:58.479Z,12.68
2022-10-29T11:16:38.895Z,15.85
2022-10-29T11:19:28.510Z,17.73
2022-10-29T11:22:14.003Z,14.30
2022-10-29T11:24:43.671Z,13.32
2022-10-29T11:27:19.152Z,15.02
2022-10-29T11:30:06.687Z,15.80
2022-10-29T11:32:58.826Z,12.07
2022-10-29T11:35:41.476Z,14.75
2022-10-29T11:38:25.797Z,17.17
2022-10-29T11:41:04.898Z,14.20
2022-10-29T11:43:33.382Z,16.25
2022-10-29T11:46:28.726Z,11.18
2022-10-29T11:49:25.128Z,18.25
2022-10-29T11:52:12.372Z,16.85
2022-10-29T11:54:55.408Z,13.15
2022-10-29T11:57:36.339Z,13.85
2022-10-29T12:00:16.689Z,13.73
2022-10-29T12:03:04.150Z,18.25
2022-10-29T12:05:52.846Z,13.50
2022-10-29T12:09:01.408Z,12.88
2022-10-29T12:11:35.814Z,14.75
2022-10-29T12:14:26.734Z,15.00
2022-10-29T12:19:45.874Z,16.23
2022-10-29T12:22:23.113Z,13.10
2022-10-29T12:25:28.232Z,13.57
2022-10-29T12:28:32.486Z,13.98
2022-10-29T12:30:59.144Z,15.52
2022-10-29T12:33:37.737Z,17.50
2022-10-29T12:36:13.666Z,13.45
2022-10-29T12:38:48.697Z,14.80
2022-10-29T12:41:23.492Z,17.52
2022-10-29T12:43:53.545Z,14.82
2022-10-29T12:46:59.355Z,11.60
2022-10-29T12:49:50.197Z,13.15
2022-10-29T12:52:38.658Z,11.18
2022-10-29T12:55:07.653Z,12.02
2022-10-29T12:57:35.854Z,12.02
2022-10-29T13:00:24.497Z,10.80
2022-10-29T13:02:55.393Z,14.57
2022-10-29T13:05:25.575Z,12.25
2022-10-29T13:08:09.206Z,12.63
2022-10-29T13:10:35.908Z,12.35
2022-10-29T13:13:18.336Z,12.07
2022-10-29T13:15:57.161Z,12.85
2022-10-29T13:18:28.714Z,11.98
2022-10-29T13:20:56.054Z,10.57
2022-10-29T13:23:23.288Z,11.95
2022-10-29T13:25:51.319Z,9.93
2022-10-29T13:28:22.623Z,12.75
2022-10-29T13:31:03.705Z,10.93
2022-10-29T13:33:30.539Z,16.38
2022-10-29T13:36:03.340Z,15.85
2022-10-29T13:38:36.093Z,15.70
2022-10-29T13:41:11.967Z,14.52
2022-10-29T13:43:40.467Z,13.65
2022-10-29T13:46:13.316Z,14.57
2022-10-29T13:48:41.276Z,14.93
2022-10-29T13:53:47.394Z,21.73
2022-10-29T13:56:20.517Z,18.52
2022-10-29T13:58:48.723Z,16.65
2022-10-29T14:01:18.918Z,17.42
2022-10-29T14:04:06.933Z,15.65
2022-10-29T14:06:38.332Z,17.55
2022-10-29T14:09:27.815Z,16.35
2022-10-29T14:12:02.549Z,15.35
2022-10-29T14:14:36.124Z,20.33
2022-10-29T14:17:10.530Z,18.15
2022-10-29T14:19:37.394Z,15.13
2022-10-29T14:22:33.735Z,16.17
2022-10-29T14:25:02.112Z,16.92
2022-10-29T14:27:29.787Z,14.85
2022-10-29T14:30:29.250Z,14.82
2022-10-29T14:32:55.986Z,12.45
2022-10-29T14:35:22.775Z,17.15
2022-10-29T14:37:49.870Z,16.20
2022-10-29T14:40:23.063Z,16.37
2022-10-29T14:42:55.717Z,11.45
2022-10-29T14:45:28.533Z,13.27
2022-10-29T14:48:03.412Z,15.13
2022-10-29T14:50:31.076Z,21.25
2022-10-29T14:55:40.042Z,18.58
2022-10-29T14:58:19.345Z,15.95
2022-10-29T15:01:03.433Z,17.08
2022-10-29T15:03:32.883Z,16.10
2022-10-29T15:06:16.878Z,13.77
2022-10-29T15:08:46.842Z,15.13
2022-10-29T15:11:36.557Z,15.55
2022-10-29T15:14:05.928Z,16.65
2022-10-29T15:16:36.906Z,17.25
2022-10-29T15:19:14.480Z,14.88
2022-10-29T15:21:41.289Z,13.95
2022-10-29T15:24:17.773Z,14.80
2022-10-29T15:26:58.796Z,18.90
2022-10-29T15:29:34.058Z,17.30
2022-10-29T15:32:01.676Z,18.23
2022-10-29T15:34:37.072Z,17.77
2022-10-29T15:37:19.087Z,15.10
2022-10-29T15:40:09.284Z,17.50
2022-10-29T15:42:36.972Z,15.05
2022-10-29T15:45:30.132Z,17.95
2022-10-29T15:48:18.027Z,15.73
2022-10-29T15:53:15.825Z,14.63
2022-10-29T15:55:43.734Z,17.13
2022-10-29T15:58:10.489Z,17.42
2022-10-29T16:00:37.224Z,15.80
2022-10-29T16:03:17.707Z,19.05
2022-10-29T16:05:47.226Z,16.65
2022-10-29T16:08:27.343Z,18.25
2022-10-29T16:10:55.286Z,21.35
2022-10-29T16:13:24.047Z,22.02
2022-10-29T16:15:51.074Z,22.00
2022-10-29T16:18:18.223Z,30.23
2022-10-29T16:20:44.989Z,28.23
2022-10-29T16:23:12.266Z,26.35
2022-10-29T16:25:39.784Z,28.07
2022-10-29T16:28:07.159Z,30.50
2022-10-29T16:30:34.968Z,32.55
2022-10-29T16:33:02.405Z,35.70
2022-10-29T16:35:30.220Z,34.30
2022-10-29T16:37:57.751Z,32.17
2022-10-29T16:40:27.546Z,29.58
2022-10-29T16:42:55.055Z,27.05
2022-10-29T16:45:26.151Z,31.02
2022-10-29T16:47:53.533Z,31.77
2022-10-29T16:50:22.989Z,31.15
2022-10-29T16:52:57.823Z,22.35
2022-10-29T16:55:25.647Z,25.75
2022-10-29T16:57:52.494Z,23.08
2022-10-29T17:00:19.616Z,23.20
2022-10-29T17:02:46.579Z,20.95
2022-10-29T17:05:28.221Z,21.05
2022-10-29T17:07:55.830Z,21.88
2022-10-29T17:10:23.185Z,29.15
2022-10-29T17:12:50.432Z,30.80
2022-10-29T17:15:31.622Z,24.13
2022-10-29T17:17:58.951Z,22.45
2022-10-29T17:20:26.091Z,23.93
2022-10-29T17:22:53.372Z,26.23
2022-10-29T17:25:20.160Z,29.63
2022-10-29T17:27:46.852Z,22.13
2022-10-29T17:30:13.796Z,26.77
2022-10-29T17:32:40.774Z,25.63
2022-10-29T17:35:17.417Z,26.70
2022-10-29T17:38:01.114Z,21.83
2022-10-29T17:40:27.933Z,20.23
2022-10-29T17:42:55.389Z,25.67
2022-10-29T17:45:23.845Z,27.70
2022-10-29T17:47:57.864Z,26.20
2022-10-29T17:50:25.778Z,27.27
2022-10-29T17:52:57.868Z,25.73
2022-10-29T17:55:24.919Z,26.48
2022-10-29T17:57:51.695Z,29.73
2022-10-29T18:00:19.264Z,24.25
2022-10-29T18:02:50.096Z,32.13
2022-10-29T18:05:17.737Z,27.58
2022-10-29T18:07:44.455Z,35.30
2022-10-29T18:10:11.207Z,31.27
2022-10-29T18:12:37.887Z,31.35
2022-10-29T18:15:05.376Z,31.67
2022-10-29T18:17:32.519Z,27.90
2022-10-29T18:19:59.211Z,26.73
2022-10-29T18:22:25.963Z,47.67
2022-10-29T18:24:52.656Z,51.97
2022-10-29T18:27:20.236Z,47.00
2022-10-29T18:29:47.068Z,41.97
2022-10-29T18:32:13.866Z,37.50
2022-10-29T18:34:40.670Z,33.95
2022-10-29T18:37:07.667Z,32.42
2022-10-29T18:39:34.449Z,35.42
2022-10-29T18:42:01.432Z,24.85
2022-10-29T18:44:28.420Z,26.85
2022-10-29T18:46:55.364Z,25.67
2022-10-29T18:49:22.124Z,31.08
2022-10-29T18:51:48.849Z,34.03
2022-10-29T18:54:15.737Z,26.52
2022-10-29T18:56:42.851Z,29.67
2022-10-29T18:59:11.472Z,27.75
2022-10-29T19:01:38.581Z,28.48
2022-10-29T19:04:08.496Z,25.42
2022-10-29T19:06:36.883Z,25.60
2022-10-29T19:09:07.137Z,31.80
2022-10-29T19:11:34.395Z,24.52
2022-10-29T19:14:10.012Z,25.63
2022-10-29T19:16:41.539Z,29.35
2022-10-29T19:19:11.689Z,26.77
2022-10-29T19:21:40.006Z,31.65
2022-10-29T19:26:36.792Z,24.42
2022-10-29T19:29:05.593Z,26.25
2022-10-29T19:31:34.618Z,26.35
2022-10-29T19:34:05.961Z,27.33
2022-10-29T19:36:34.466Z,29.33
2022-10-29T19:39:01.585Z,21.70
2022-10-29T19:41:29.300Z,23.42
2022-10-29T19:43:59.975Z,25.90
2022-10-29T19:46:27.179Z,28.48
2022-10-29T19:48:58.359Z,24.77
2022-10-29T19:51:25.307Z,26.17
2022-10-29T19:53:52.030Z,25.73
2022-10-29T19:56:20.170Z,21.98
2022-10-29T19:58:47.248Z,22.52
2022-10-29T20:01:18.943Z,21.17
2022-10-29T20:03:46.875Z,22.25
2022-10-29T20:06:14.854Z,21.63
2022-10-29T20:08:41.664Z,19.30
2022-10-29T20:11:08.684Z,23.23
2022-10-29T20:13:39.767Z,22.92
2022-10-29T20:16:16.732Z,28.50
2022-10-29T20:18:43.493Z,23.80
2022-10-29T20:21:10.248Z,48.97
2022-10-29T20:23:37.047Z,35.83
2022-10-29T20:26:04.430Z,18.52
2022-10-29T20:28:31.210Z,20.67
2022-10-29T20:31:18.833Z,18.30
2022-10-29T20:34:01.632Z,21.50
2022-10-29T20:36:31.269Z,19.70
2022-10-29T20:39:01.460Z,18.02
2022-10-29T20:41:31.305Z,24.05
2022-10-29T20:44:01.080Z,23.10
2022-10-29T20:46:28.585Z,22.52
2022-10-29T20:48:55.608Z,19.63
2022-10-29T20:51:25.162Z,21.02
2022-10-29T20:53:52.814Z,19.50
2022-10-29T20:56:21.322Z,15.85
2022-10-29T20:58:48.200Z,20.67
2022-10-29T21:01:17.618Z,18.10
2022-10-29T21:03:45.266Z,15.82
2022-10-29T21:06:17.108Z,16.25
2022-10-29T21:08:48.577Z,15.40
2022-10-29T21:11:20.420Z,16.45
2022-10-29T21:13:47.203Z,26.80
2022-10-29T21:16:31.425Z,32.13
2022-10-29T21:19:00.943Z,27.70
2022-10-29T21:21:29.093Z,19.30
2022-10-29T21:26:25.010Z,18.77
2022-10-29T21:28:55.736Z,19.17
2022-10-29T21:31:23.431Z,22.63
2022-10-29T21:33:54.776Z,18.50
2022-10-29T21:36:22.646Z,17.10
2022-10-29T21:38:52.260Z,16.90
2022-10-29T21:41:18.959Z,18.50
2022-10-29T21:43:46.121Z,14.75
2022-10-29T21:46:12.885Z,22.13
2022-10-29T21:48:39.646Z,17.55
2022-10-29T21:51:09.814Z,18.27
2022-10-29T21:53:36.757Z,23.77
2022-10-29T21:56:06.272Z,22.83
2022-10-29T21:58:33.510Z,21.58
2022-10-29T22:01:07.008Z,23.65
2022-10-29T22:03:38.472Z,20.83
2022-10-29T22:06:13.946Z,17.65
2022-10-29T22:08:41.908Z,14.93
2022-10-29T22:11:09.279Z,16.80
2022-10-29T22:13:36.452Z,13.75
2022-10-29T22:16:05.171Z,13.73
2022-10-29T22:18:32.492Z,17.17
2022-10-29T22:21:20.312Z,18.73
2022-10-29T22:23:49.297Z,16.00
2022-10-29T22:26:18.510Z,22.33
2022-10-29T22:28:47.134Z,15.82
2022-10-29T22:31:15.310Z,19.63
2022-10-29T22:33:43.183Z,17.15
2022-10-29T22:36:25.071Z,17.25
2022-10-29T22:38:56.235Z,18.88
2022-10-29T22:41:23.936Z,16.88
2022-10-29T22:43:50.611Z,18.20
2022-10-29T22:46:19.218Z,21.40
2022-10-29T22:48:46.525Z,16.75
2022-10-29T22:51:16.155Z,17.80
2022-10-29T22:53:43.585Z,21.30
2022-10-29T22:56:15.498Z,18.73
2022-10-29T22:58:42.412Z,19.42
2022-10-29T23:01:18.295Z,20.02
2022-10-29T23:03:45.633Z,18.98
2022-10-29T23:06:14.900Z,22.52
2022-10-29T23:08:45.316Z,26.95
2022-10-29T23:11:21.393Z,27.08
2022-10-29T23:13:50.305Z,26.02
2022-10-29T23:16:17.041Z,29.77
2022-10-29T23:18:48.082Z,26.63
2022-10-29T23:21:14.840Z,24.15
2022-10-29T23:23:41.883Z,25.60
2022-10-29T23:26:11.216Z,24.95
2022-10-29T23:28:39.789Z,20.67
2022-10-29T23:31:21.068Z,21.23
2022-10-29T23:33:53.840Z,17.52
2022-10-29T23:36:22.569Z,17.33
2022-10-29T23:38:58.048Z,16.58
2022-10-29T23:41:26.155Z,18.45
2022-10-29T23:43:53.103Z,23.75
2022-10-29T23:46:20.340Z,26.55
2022-10-29T23:48:47.258Z,22.20
2022-10-29T23:51:14.072Z,19.58
2022-10-29T23:53:41.185Z,23.38
2022-10-29T23:56:08.095Z,21.08
2022-10-29T23:58:34.885Z,19.33
